Ascot, United Kingdom

1:11 PM BST on September 04, 2015 (GMT +0100)
IBERKSWI1 | | Change Station
CLOSE
Current Station
Personal Weather Station
Location: Ascot, BERKS
Elevation: 243 ft
Nearby Weather Stations

Elev 243 ft 51.42 °N, 0.68 °W | Updated 20 seconds ago

Scattered Clouds
Scattered Clouds
58.7 °F
Feels Like 58.7 °F
N
3.5
Wind Variable Wind from NW
Gusts 3.5 mph

Today
High -- | Low -- °F
--% Chance of Precip.
Yesterday
High -- | Low -- °F
Precip. -- in
6:19 AM 7:43 PM
Waning Gibbous, 60% visible
Pressure 30.06 in
Visibility 6.2 miles
Clouds Scattered Clouds 3000 ft
Dew Point 50 °F
Humidity 73%
Rainfall 0.00 in
Snow Depth Not available.
UV 0.6 out of 12
Pollen Not available.
Air Quality Not available.
Flu Activity Not available.
METAR EGLF 041150Z 30008KT 250V360 9999 SCT030 15/09 Q1018
Pressure 30.06 in
Visibility 6.2 miles
Clouds Scattered Clouds 3000 ft
Dew Point 50 °F
Humidity 73%
Rainfall 0.00 in
Snow Depth Not available.
UV 0.6 out of 12
Pollen Not available.
Air Quality Not available.
Flu Activity Not available.
METAR EGLF 041150Z 30008KT 250V360 9999 SCT030 15/09 Q1018

10-Day Weather Forecast

×

Almanac

Astronomy

Sep. 04, 2015 Rise Set
Actual Time
Civil Twilight
Nautical Twilight
Astronomical Twilight
Moon
Length of Visible Light
Length of Day
Tomorrow will be .
, % of the Moon is Illuminated

Today's Extremes

Country Highs Country Lows

Community

WunderPhotos

Upload Photos

1,852,161 photos uploaded!

WunderBlogs® & News

Nearby

Air Quality

  Air Quality AQ Index Pollutant
Not available.

Snow Depth

Station Depth Elevation

Earthquake Activity

City Distance Mag. Time & Date
Minimum magnitude displayed is 2.5.

Coastal Water Temperatures

Place Temperature

Stations

Nearby Weather Stations

Station Location Temp. Windchill Dew Point Humidity Wind Precip. Elev Updated Type